Time;durP1;ratioP1;P1;durP2;ratioP2;P2;SDS_P1;SDS_P2;PMS_P1;PMS_P2;Temp;Humidity;BMP_temperature;BMP_pressure;BME280_temperature;BME280_humidity;BME280_pressure;Samples;Min_cycle;Max_cycle;Signal;HPM_P1;HPM_P2
2022/08/16 00:01:59;;;;;;;10.52;9.40;;;18.70;99.90;;;;;;5086621;28;20170;-55
2022/08/16 00:04:25;;;;;;;10.00;8.25;;;18.70;99.90;;;;;;5076340;28;20025;-56
2022/08/16 00:06:50;;;;;;;10.88;9.05;;;18.70;99.90;;;;;;5077447;28;20035;-54
2022/08/16 00:09:16;;;;;;;8.38;7.50;;;18.60;99.90;;;;;;5070576;28;20028;-54
2022/08/16 00:11:43;;;;;;;9.50;8.30;;;18.60;99.90;;;;;;5081057;28;20107;-56
2022/08/16 00:14:13;;;;;;;12.45;9.13;;;18.50;99.90;;;;;;5076530;28;20400;-56
2022/08/16 00:16:39;;;;;;;9.45;8.00;;;18.50;99.90;;;;;;5070184;28;20047;-55
2022/08/16 00:19:05;;;;;;;9.07;7.90;;;18.50;99.90;;;;;;5090129;28;20460;-53
2022/08/16 00:21:32;;;;;;;12.00;9.70;;;18.40;99.90;;;;;;5069707;28;20052;-55
2022/08/16 00:23:57;;;;;;;9.82;8.30;;;18.50;99.90;;;;;;5091446;28;20099;-57
2022/08/16 00:26:24;;;;;;;9.05;8.15;;;18.40;99.90;;;;;;5069722;28;20135;-55
2022/08/16 00:28:50;;;;;;;9.02;8.02;;;18.40;99.90;;;;;;5089905;28;20016;-55
2022/08/16 00:31:15;;;;;;;10.38;8.90;;;18.40;99.90;;;;;;5078226;28;20538;-56
2022/08/16 00:33:41;;;;;;;10.63;9.50;;;18.40;99.90;;;;;;5070005;28;20032;-56
2022/08/16 00:36:06;;;;;;;11.98;10.10;;;18.30;99.90;;;;;;5090192;28;20036;-57
2022/08/16 00:38:32;;;;;;;10.75;9.32;;;18.30;99.90;;;;;;5069484;28;20104;-55
2022/08/16 00:40:59;;;;;;;11.70;9.38;;;18.30;99.90;;;;;;5090063;28;20488;-57
2022/08/16 00:43:30;;;;;;;11.20;8.98;;;18.30;99.90;;;;;;5069085;28;20484;-57
2022/08/16 00:46:04;;;;;;;10.27;8.68;;;18.20;99.90;;;;;;5049648;28;20443;-56
2022/08/16 00:48:30;;;;;;;10.82;8.68;;;18.20;99.90;;;;;;5065936;28;20032;-54
2022/08/16 00:50:56;;;;;;;11.55;8.55;;;18.20;99.90;;;;;;5090138;28;20066;-56
2022/08/16 00:53:22;;;;;;;12.55;8.77;;;18.10;99.90;;;;;;5069085;28;20068;-54
2022/08/16 00:55:50;;;;;;;9.60;8.60;;;18.10;99.90;;;;;;5089842;28;20074;-55
2022/08/16 00:58:18;;;;;;;10.50;9.27;;;18.10;99.90;;;;;;5068503;28;20526;-57
2022/08/16 01:00:46;;;;;;;11.35;8.73;;;18.10;99.90;;;;;;5090146;28;20046;-55
2022/08/16 01:03:14;;;;;;;10.45;9.07;;;18.10;99.90;;;;;;5068679;28;20416;-57
2022/08/16 01:05:41;;;;;;;10.48;9.32;;;18.10;99.90;;;;;;5089926;28;20081;-57
2022/08/16 01:08:08;;;;;;;10.52;8.40;;;18.10;99.90;;;;;;5068593;28;20441;-56
2022/08/16 01:10:34;;;;;;;10.80;9.30;;;18.00;99.90;;;;;;5089789;28;20039;-58
2022/08/16 01:13:23;;;;;;;10.80;8.73;;;18.00;99.90;;;;;;5068975;28;20041;-54
2022/08/16 01:16:03;;;;;;;11.13;9.45;;;18.00;99.90;;;;;;5089481;28;20032;-57
2022/08/16 01:18:37;;;;;;;11.82;9.90;;;18.00;99.90;;;;;;5064176;28;20100;-56
2022/08/16 01:21:10;;;;;;;10.13;9.13;;;17.90;99.90;;;;;;5050026;28;20445;-54
2022/08/16 01:24:04;;;;;;;10.05;8.85;;;17.90;99.90;;;;;;5065168;28;20028;-53
2022/08/16 01:26:32;;;;;;;10.18;8.75;;;17.90;99.90;;;;;;5049718;28;20057;-56
2022/08/16 01:29:01;;;;;;;11.30;8.63;;;17.90;99.90;;;;;;5088179;28;20263;-57
2022/08/16 01:31:28;;;;;;;13.02;9.60;;;17.80;99.90;;;;;;5078244;28;20520;-56
2022/08/16 01:33:54;;;;;;;10.15;9.07;;;17.80;99.90;;;;;;5068274;28;20025;-57
2022/08/16 01:36:20;;;;;;;9.82;8.13;;;17.80;99.90;;;;;;5089082;28;20032;-55
2022/08/16 01:38:48;;;;;;;10.07;8.70;;;17.80;99.90;;;;;;5068195;28;20035;-56
2022/08/16 01:41:18;;;;;;;9.40;8.43;;;17.80;99.90;;;;;;5089343;28;20024;-53
2022/08/16 01:43:45;;;;;;;10.50;9.40;;;17.80;99.90;;;;;;5066592;28;20094;-56
2022/08/16 01:46:30;;;;;;;11.00;9.18;;;17.70;99.90;;;;;;5089029;28;20127;-55
2022/08/16 01:49:00;;;;;;;10.48;9.07;;;17.70;99.90;;;;;;5067657;28;20115;-55
2022/08/16 01:51:26;;;;;;;11.27;9.07;;;17.70;99.90;;;;;;5089433;28;20222;-56
2022/08/16 01:53:52;;;;;;;9.18;8.25;;;17.70;99.90;;;;;;5067855;28;20037;-57
2022/08/16 01:56:20;;;;;;;10.48;8.73;;;17.60;99.90;;;;;;5088291;28;20400;-57
2022/08/16 01:58:45;;;;;;;11.43;9.52;;;17.70;99.90;;;;;;5067784;28;20610;-57
2022/08/16 02:01:12;;;;;;;12.07;9.38;;;17.60;99.90;;;;;;5088420;28;20071;-55
2022/08/16 02:03:38;;;;;;;11.45;9.80;;;17.60;99.90;;;;;;5067859;28;20063;-57
2022/08/16 02:06:04;;;;;;;9.20;8.30;;;17.60;99.90;;;;;;5088658;28;20548;-55
2022/08/16 02:08:29;;;;;;;12.60;9.60;;;17.50;99.90;;;;;;5067861;28;20020;-56
2022/08/16 02:10:55;;;;;;;9.55;8.40;;;17.50;99.90;;;;;;5088596;28;20027;-57
2022/08/16 02:13:21;;;;;;;15.90;10.55;;;17.50;99.90;;;;;;5067141;28;20510;-57
2022/08/16 02:15:46;;;;;;;14.82;11.65;;;17.50;99.90;;;;;;5089306;28;20028;-56
2022/08/16 02:18:12;;;;;;;15.15;11.27;;;17.50;99.90;;;;;;5067894;28;20033;-53
2022/08/16 02:20:40;;;;;;;13.68;11.02;;;17.50;99.90;;;;;;5088589;28;20036;-55
2022/08/16 02:23:07;;;;;;;14.45;11.63;;;17.50;99.90;;;;;;5078542;28;20107;-54
2022/08/16 02:25:33;;;;;;;16.75;12.75;;;17.50;99.90;;;;;;5069404;28;20032;-54
2022/08/16 02:28:01;;;;;;;12.95;10.48;;;17.50;99.90;;;;;;5086684;28;20503;-57
2022/08/16 02:30:29;;;;;;;14.82;10.63;;;17.50;99.90;;;;;;5069403;28;20428;-57
2022/08/16 02:32:56;;;;;;;14.35;12.05;;;17.40;99.90;;;;;;5087255;28;20027;-56
2022/08/16 02:35:22;;;;;;;18.50;11.60;;;17.40;99.90;;;;;;5069168;28;20029;-56
2022/08/16 02:37:47;;;;;;;16.38;11.50;;;17.40;99.90;;;;;;5086525;28;20028;-57
2022/08/16 02:40:15;;;;;;;14.65;11.18;;;17.40;99.90;;;;;;5069435;28;20068;-58
2022/08/16 02:42:42;;;;;;;16.83;12.55;;;17.40;99.90;;;;;;5086660;28;20022;-58
2022/08/16 02:45:09;;;;;;;14.70;11.95;;;17.30;99.90;;;;;;5089109;28;20012;-55
2022/08/16 02:47:34;;;;;;;15.38;11.32;;;17.30;99.90;;;;;;5073533;28;20095;-54
2022/08/16 02:50:00;;;;;;;16.50;11.10;;;17.30;99.90;;;;;;5089118;28;20484;-57
2022/08/16 02:52:25;;;;;;;17.80;12.82;;;17.30;99.90;;;;;;5072332;28;20487;-57
2022/08/16 02:54:51;;;;;;;13.82;10.68;;;17.20;99.90;;;;;;5089044;28;20385;-57
2022/08/16 02:57:16;;;;;;;13.73;11.18;;;17.20;99.90;;;;;;5070813;28;20079;-57
2022/08/16 02:59:42;;;;;;;11.50;9.68;;;17.20;99.90;;;;;;5088857;28;20183;-57
2022/08/16 03:02:09;;;;;;;13.68;9.75;;;17.20;99.90;;;;;;5069250;28;20031;-56
2022/08/16 03:04:35;;;;;;;15.27;11.65;;;17.20;99.90;;;;;;5087497;28;20024;-56
2022/08/16 03:07:01;;;;;;;15.63;11.80;;;17.10;99.90;;;;;;5068016;28;20489;-57
2022/08/16 03:09:26;;;;;;;15.55;11.60;;;17.10;99.90;;;;;;5091896;28;20111;-55
2022/08/16 03:11:52;;;;;;;17.42;10.73;;;17.10;99.90;;;;;;5072932;28;20028;-55
2022/08/16 03:14:18;;;;;;;12.65;9.73;;;17.10;99.90;;;;;;5074791;28;20059;-58
2022/08/16 03:16:43;;;;;;;15.38;11.13;;;17.00;99.90;;;;;;5091745;28;20506;-57
2022/08/16 03:19:09;;;;;;;15.85;11.10;;;17.00;99.90;;;;;;5071240;28;20024;-56
2022/08/16 03:21:35;;;;;;;15.10;11.68;;;17.00;99.90;;;;;;5091882;28;20030;-57
2022/08/16 03:24:00;;;;;;;14.73;10.85;;;17.00;99.90;;;;;;5070875;28;20488;-56
2022/08/16 03:26:26;;;;;;;14.38;11.38;;;16.90;99.90;;;;;;5091662;28;20036;-56
2022/08/16 03:28:51;;;;;;;14.57;10.90;;;16.90;99.90;;;;;;5070775;28;20060;-57
2022/08/16 03:31:17;;;;;;;12.18;10.43;;;16.90;99.90;;;;;;5083646;28;20415;-57
2022/08/16 03:33:42;;;;;;;12.48;10.52;;;16.90;99.90;;;;;;5074506;28;20025;-57
2022/08/16 03:36:08;;;;;;;14.73;10.77;;;16.90;99.90;;;;;;5071942;28;20401;-55
2022/08/16 03:38:35;;;;;;;15.20;11.55;;;16.90;99.90;;;;;;5076611;28;20459;-56
2022/08/16 03:41:02;;;;;;;11.63;9.75;;;16.90;99.90;;;;;;5091604;28;20119;-56
2022/08/16 03:43:28;;;;;;;11.75;9.73;;;16.80;99.90;;;;;;5070574;28;20030;-54
2022/08/16 03:45:56;;;;;;;12.05;10.65;;;16.80;99.90;;;;;;5079597;28;20120;-58
2022/08/16 03:48:24;;;;;;;13.88;11.18;;;16.80;99.90;;;;;;5080921;28;20051;-62
2022/08/16 03:50:50;;;;;;;13.25;10.40;;;16.80;99.90;;;;;;5071723;28;20078;-54
2022/08/16 03:53:15;;;;;;;12.07;9.75;;;16.80;99.90;;;;;;5089481;28;20024;-57
2022/08/16 03:55:41;;;;;;;12.93;9.45;;;16.80;99.90;;;;;;5072147;28;20040;-56
2022/08/16 03:58:06;;;;;;;10.85;9.45;;;16.80;99.90;;;;;;5089314;28;20028;-55
2022/08/16 04:00:32;;;;;;;13.60;10.13;;;16.80;99.90;;;;;;5072119;28;20048;-56
2022/08/16 04:03:05;;;;;;;11.95;10.23;;;16.80;99.90;;;;;;5089538;28;20703;-55
2022/08/16 04:05:32;;;;;;;11.38;9.07;;;16.80;99.90;;;;;;5091859;28;20035;-57
2022/08/16 04:07:57;;;;;;;10.65;9.00;;;16.80;99.90;;;;;;5070007;28;20052;-57
2022/08/16 04:10:23;;;;;;;12.63;10.70;;;16.80;99.90;;;;;;5071521;28;20436;-56
2022/08/16 04:12:48;;;;;;;12.10;9.43;;;16.90;99.90;;;;;;5089040;28;20024;-56
2022/08/16 04:15:16;;;;;;;10.18;8.82;;;16.90;99.90;;;;;;5086918;28;20074;-57
2022/08/16 04:17:41;;;;;;;10.15;9.05;;;16.90;99.90;;;;;;5074342;28;20055;-57
2022/08/16 04:20:08;;;;;;;11.50;10.07;;;16.90;99.90;;;;;;5091425;28;20052;-54
2022/08/16 04:22:35;;;;;;;11.88;8.48;;;17.00;99.90;;;;;;5073055;28;20032;-57
2022/08/16 04:25:00;;;;;;;10.15;8.55;;;17.00;99.90;;;;;;5091649;28;20028;-56
2022/08/16 04:27:27;;;;;;;12.80;9.90;;;17.00;99.90;;;;;;5071744;28;20560;-54
2022/08/16 04:29:52;;;;;;;10.93;8.70;;;17.10;99.90;;;;;;5090052;28;20028;-57
2022/08/16 04:32:18;;;;;;;12.10;9.05;;;17.10;99.90;;;;;;5070211;28;20416;-52
2022/08/16 04:34:43;;;;;;;11.85;9.43;;;17.20;99.90;;;;;;5091538;28;20054;-55
2022/08/16 04:37:09;;;;;;;12.15;9.82;;;17.20;99.90;;;;;;5071375;28;20039;-57
2022/08/16 04:39:36;;;;;;;10.88;9.65;;;17.30;99.90;;;;;;5088753;28;20043;-57
2022/08/16 04:42:02;;;;;;;9.70;8.32;;;17.60;99.90;;;;;;5069680;28;20029;-57
2022/08/16 04:44:27;;;;;;;10.05;9.05;;;18.00;99.90;;;;;;5068923;28;20047;-57
2022/08/16 04:46:53;;;;;;;12.10;9.63;;;18.50;99.90;;;;;;5090267;28;20043;-54
2022/08/16 04:49:19;;;;;;;12.85;9.55;;;19.00;99.90;;;;;;5069327;28;20033;-55
2022/08/16 04:51:44;;;;;;;9.30;8.30;;;19.60;99.90;;;;;;5090056;28;20036;-58
2022/08/16 04:54:10;;;;;;;11.43;9.02;;;20.10;99.90;;;;;;5068607;28;20024;-55
2022/08/16 04:56:37;;;;;;;9.57;7.80;;;20.70;99.90;;;;;;5050979;28;20037;-58
2022/08/16 04:59:03;;;;;;;8.80;7.90;;;21.20;99.90;;;;;;5072958;28;20028;-58
2022/08/16 05:01:29;;;;;;;8.88;7.88;;;21.70;99.90;;;;;;5088575;28;20113;-58
2022/08/16 05:03:54;;;;;;;7.88;7.07;;;22.20;98.20;;;;;;5069125;28;20504;-56
2022/08/16 05:06:20;;;;;;;9.18;7.68;;;22.70;96.80;;;;;;5089887;28;20024;-56
2022/08/16 05:08:45;;;;;;;7.70;6.90;;;23.20;94.50;;;;;;5069029;28;20396;-55
2022/08/16 05:11:12;;;;;;;7.68;6.90;;;23.80;92.80;;;;;;5089848;28;20043;-56
2022/08/16 05:13:42;;;;;;;9.48;8.48;;;24.30;90.40;;;;;;5073490;28;20402;-53
2022/08/16 05:16:16;;;;;;;8.00;7.30;;;24.90;86.70;;;;;;5070214;28;20032;-53
2022/08/16 05:18:42;;;;;;;11.85;8.93;;;25.50;80.90;;;;;;5059882;28;20029;-53
2022/08/16 05:21:07;;;;;;;9.07;8.18;;;26.00;78.00;;;;;;5089356;28;20020;-49
2022/08/16 05:23:33;;;;;;;8.38;7.57;;;26.50;74.60;;;;;;5078248;28;20046;-52
2022/08/16 05:25:59;;;;;;;9.38;8.30;;;26.80;71.20;;;;;;5062079;28;20033;-48
2022/08/16 05:28:26;;;;;;;8.98;8.07;;;27.10;67.10;;;;;;5070648;28;20433;-50
2022/08/16 05:30:51;;;;;;;8.82;7.75;;;27.40;64.40;;;;;;5079188;28;20145;-51
2022/08/16 05:33:19;;;;;;;8.73;7.82;;;27.80;63.60;;;;;;5072102;28;20598;-49
2022/08/16 05:35:46;;;;;;;6.93;6.22;;;28.20;62.10;;;;;;5067432;28;20036;-50
2022/08/16 05:38:11;;;;;;;7.85;7.07;;;28.70;59.90;;;;;;5077995;28;20051;-48
2022/08/16 05:40:37;;;;;;;9.05;8.25;;;29.20;57.20;;;;;;5067016;28;20028;-52
2022/08/16 05:43:02;;;;;;;10.27;9.27;;;29.80;52.90;;;;;;5072995;28;20032;-46
2022/08/16 05:45:28;;;;;;;8.40;7.60;;;30.00;49.90;;;;;;5085135;28;20116;-48
2022/08/16 05:47:53;;;;;;;9.07;8.18;;;30.40;48.20;;;;;;5069126;28;20027;-49
2022/08/16 05:50:19;;;;;;;7.72;7.03;;;31.10;45.80;;;;;;5080595;28;20025;-51
2022/08/16 05:52:44;;;;;;;9.77;8.80;;;31.50;43.40;;;;;;5084335;28;20074;-48
2022/08/16 05:55:10;;;;;;;8.65;7.82;;;31.80;42.00;;;;;;5077445;28;20523;-47
2022/08/16 05:57:35;;;;;;;7.50;6.80;;;32.10;41.00;;;;;;5074924;28;20028;-48
2022/08/16 06:00:08;;;;;;;8.75;7.85;;;32.50;40.00;;;;;;5065521;28;20116;-51
2022/08/16 06:02:34;;;;;;;8.18;7.47;;;32.80;37.50;;;;;;5058329;28;20117;-46
2022/08/16 06:05:00;;;;;;;7.78;7.07;;;33.10;34.90;;;;;;5076952;28;20558;-46
2022/08/16 06:07:26;;;;;;;7.85;7.05;;;33.50;33.30;;;;;;5081880;28;20040;-48
2022/08/16 06:09:52;;;;;;;7.88;7.07;;;33.90;31.50;;;;;;5067632;28;20085;-49
2022/08/16 06:12:17;;;;;;;7.97;7.28;;;34.00;30.10;;;;;;5065391;28;20439;-51
2022/08/16 06:14:43;;;;;;;8.20;7.45;;;34.30;28.70;;;;;;5065069;28;20114;-54
2022/08/16 06:17:08;;;;;;;7.65;6.95;;;34.60;26.90;;;;;;5071818;28;20097;-53
2022/08/16 06:19:34;;;;;;;7.95;7.15;;;35.10;25.10;;;;;;5067138;28;20434;-53
2022/08/16 06:21:59;;;;;;;6.88;6.18;;;35.40;23.30;;;;;;5072807;28;20032;-52
2022/08/16 06:24:25;;;;;;;7.47;6.22;;;36.00;21.70;;;;;;5064252;28;20028;-49
2022/08/16 06:26:51;;;;;;;7.53;6.82;;;36.50;20.60;;;;;;5085687;28;20043;-55
2022/08/16 06:29:16;;;;;;;6.60;6.00;;;36.80;18.40;;;;;;5059305;28;20028;-55
2022/08/16 06:31:42;;;;;;;5.90;5.38;;;37.20;16.80;;;;;;5063278;28;20099;-53
2022/08/16 06:34:07;;;;;;;7.55;6.03;;;37.60;15.90;;;;;;5072320;28;20111;-56
2022/08/16 06:36:33;;;;;;;5.68;5.18;;;37.80;14.40;;;;;;5081113;28;20032;-57
2022/08/16 06:38:58;;;;;;;6.40;5.82;;;38.10;13.40;;;;;;5074073;28;20078;-57
2022/08/16 06:41:24;;;;;;;5.95;5.43;;;38.60;12.80;;;;;;5087414;28;20440;-56
2022/08/16 06:43:50;;;;;;;6.57;5.97;;;38.90;11.00;;;;;;5078645;28;20032;-55
2022/08/16 06:46:33;;;;;;;7.15;6.18;;;38.80;9.60;;;;;;5072210;28;20393;-54
2022/08/16 06:49:01;;;;;;;5.38;4.97;;;38.80;3.80;;;;;;5072442;28;20032;-56
2022/08/16 06:51:26;;;;;;;6.30;5.68;;;38.70;8.30;;;;;;5073237;28;20029;-56
2022/08/16 06:53:52;;;;;;;7.15;6.55;;;39.00;7.70;;;;;;5089772;28;20035;-56
2022/08/16 06:56:18;;;;;;;6.72;6.05;;;39.30;6.70;;;;;;5072767;28;20056;-55
2022/08/16 06:58:43;;;;;;;6.10;5.35;;;39.20;6.10;;;;;;5090015;28;20057;-57
2022/08/16 07:01:09;;;;;;;6.38;5.78;;;39.40;5.70;;;;;;5072582;28;20111;-56
2022/08/16 07:03:34;;;;;;;6.78;5.32;;;39.60;5.30;;;;;;5089536;28;20099;-54
2022/08/16 07:06:00;;;;;;;6.70;5.97;;;39.90;4.70;;;;;;5092159;28;20032;-53
2022/08/16 07:08:28;;;;;;;6.35;5.85;;;40.30;4.10;;;;;;5076472;28;20438;-55
2022/08/16 07:10:54;;;;;;;6.25;5.43;;;40.40;3.10;;;;;;5091972;28;20036;-52
2022/08/16 07:13:20;;;;;;;5.72;5.22;;;40.60;2.80;;;;;;5074943;28;20487;-54
2022/08/16 07:15:48;;;;;;;5.88;5.15;;;40.90;2.20;;;;;;5091714;28;20119;-54
2022/08/16 07:18:14;;;;;;;4.75;4.35;;;41.00;1.20;;;;;;5074044;28;20388;-55
2022/08/16 07:20:40;;;;;;;4.70;4.30;;;41.00;1.00;;;;;;5091809;28;20031;-57
2022/08/16 07:23:07;;;;;;;4.80;4.47;;;41.30;1.00;;;;;;5073073;28;20024;-54
2022/08/16 07:25:33;;;;;;;6.18;5.43;;;41.50;1.00;;;;;;5091513;28;20020;-56
2022/08/16 07:27:59;;;;;;;5.63;5.13;;;41.30;1.00;;;;;;5070038;28;20099;-56
2022/08/16 07:30:26;;;;;;;6.18;4.57;;;41.40;1.00;;;;;;5071843;28;20032;-53
2022/08/16 07:32:52;;;;;;;5.13;4.72;;;41.60;1.00;;;;;;5090127;28;20028;-55
2022/08/16 07:35:18;;;;;;;5.20;4.68;;;41.70;1.00;;;;;;5072744;28;20032;-55
2022/08/16 07:37:44;;;;;;;4.80;4.40;;;41.70;1.00;;;;;;5092096;28;20028;-57
2022/08/16 07:40:11;;;;;;;5.32;4.82;;;41.60;1.00;;;;;;5071119;28;20028;-56
2022/08/16 07:42:37;;;;;;;5.97;4.70;;;41.80;1.00;;;;;;5092019;28;20024;-55
2022/08/16 07:45:06;;;;;;;5.10;4.68;;;42.00;1.00;;;;;;5070766;28;20438;-56
2022/08/16 07:47:32;;;;;;;5.03;4.53;;;42.10;1.00;;;;;;5091588;28;20115;-53
2022/08/16 07:50:00;;;;;;;5.00;4.50;;;42.10;1.00;;;;;;5071256;28;20618;-57
2022/08/16 07:52:25;;;;;;;4.70;4.40;;;42.10;1.00;;;;;;5089782;28;20020;-55
2022/08/16 07:54:51;;;;;;;5.63;4.45;;;41.90;1.00;;;;;;5070307;28;20036;-54
2022/08/16 07:57:17;;;;;;;4.90;4.38;;;41.80;1.00;;;;;;5091722;28;20523;-57
2022/08/16 07:59:43;;;;;;;6.18;4.72;;;41.60;1.00;;;;;;5070800;28;20422;-53
2022/08/16 08:02:10;;;;;;;4.95;4.55;;;41.60;1.00;;;;;;5091858;28;20020;-56
2022/08/16 08:04:35;;;;;;;5.13;4.72;;;41.40;1.00;;;;;;5069453;28;20028;-57
2022/08/16 08:07:01;;;;;;;4.72;4.30;;;41.10;1.00;;;;;;5091632;28;20035;-54
2022/08/16 08:09:27;;;;;;;4.72;4.32;;;40.90;1.00;;;;;;5070754;28;20545;-56
2022/08/16 08:11:52;;;;;;;4.32;4.00;;;40.60;1.00;;;;;;5091711;28;20032;-53
2022/08/16 08:14:20;;;;;;;4.72;4.22;;;40.50;1.00;;;;;;5070667;28;20032;-54
2022/08/16 08:16:46;;;;;;;5.75;4.32;;;40.30;1.00;;;;;;5091936;28;20060;-55
2022/08/16 08:19:12;;;;;;;5.13;4.22;;;40.00;1.00;;;;;;5081165;28;20055;-55
2022/08/16 08:21:39;;;;;;;5.38;4.22;;;39.90;1.00;;;;;;5070973;28;20408;-56
2022/08/16 08:24:11;;;;;;;4.40;3.72;;;39.70;1.00;;;;;;5089669;28;20028;-52
2022/08/16 08:26:36;;;;;;;4.20;3.80;;;39.60;1.00;;;;;;5051802;28;20072;-54
2022/08/16 08:29:03;;;;;;;4.63;4.22;;;39.50;1.00;;;;;;5079662;28;20436;-56
2022/08/16 08:31:29;;;;;;;5.35;4.00;;;39.50;1.00;;;;;;5082125;28;20039;-57
2022/08/16 08:33:55;;;;;;;4.53;4.13;;;39.40;1.00;;;;;;5089260;28;20040;-55
2022/08/16 08:36:27;;;;;;;4.60;4.22;;;38.90;1.00;;;;;;5072073;28;20111;-56
2022/08/16 08:38:53;;;;;;;4.63;4.18;;;38.50;1.00;;;;;;5089373;28;20594;-57
2022/08/16 08:41:18;;;;;;;4.72;3.72;;;38.30;1.00;;;;;;5091589;28;20088;-55
2022/08/16 08:43:45;;;;;;;3.90;3.60;;;38.30;1.00;;;;;;5075918;28;20131;-55
2022/08/16 08:46:11;;;;;;;4.50;4.20;;;38.20;1.00;;;;;;5091619;28;20019;-57
2022/08/16 08:48:36;;;;;;;4.68;4.28;;;38.00;1.00;;;;;;5074595;28;20372;-55
2022/08/16 08:51:04;;;;;;;4.43;4.03;;;37.80;1.00;;;;;;5085186;28;20036;-56
2022/08/16 08:53:32;;;;;;;4.47;4.07;;;37.70;1.00;;;;;;5072923;28;20034;-56
2022/08/16 08:55:57;;;;;;;4.28;3.88;;;37.80;1.00;;;;;;5091622;28;20028;-54
2022/08/16 08:58:23;;;;;;;4.97;3.90;;;37.60;1.00;;;;;;5072188;28;20051;-57
2022/08/16 09:00:49;;;;;;;4.95;4.45;;;37.30;1.00;;;;;;5090968;28;20020;-56
2022/08/16 09:03:15;;;;;;;4.20;3.90;;;37.20;1.00;;;;;;5070440;28;20043;-53
2022/08/16 09:05:41;;;;;;;5.45;3.90;;;37.20;1.00;;;;;;5089910;28;20028;-52
2022/08/16 09:08:07;;;;;;;4.53;3.90;;;37.20;1.00;;;;;;5069019;28;20035;-56
2022/08/16 09:10:33;;;;;;;4.32;4.00;;;37.20;1.00;;;;;;5070581;28;20061;-56
2022/08/16 09:12:58;;;;;;;4.97;4.30;;;37.10;1.00;;;;;;5089965;28;20473;-56
2022/08/16 09:15:25;;;;;;;4.43;4.13;;;37.20;1.00;;;;;;5068957;28;20033;-55
2022/08/16 09:17:54;;;;;;;4.30;4.00;;;37.10;1.00;;;;;;5089858;28;20088;-53
2022/08/16 09:20:22;;;;;;;4.63;4.22;;;37.00;1.00;;;;;;5068700;28;20086;-52
2022/08/16 09:22:48;;;;;;;4.38;3.90;;;36.90;1.00;;;;;;5090080;28;20499;-54
2022/08/16 09:25:14;;;;;;;4.85;4.32;;;36.70;1.00;;;;;;5068819;28;20033;-56
2022/08/16 09:27:40;;;;;;;4.38;4.07;;;36.80;1.00;;;;;;5089829;28;20509;-52
2022/08/16 09:30:07;;;;;;;4.60;4.20;;;36.90;1.00;;;;;;5068727;28;20475;-57
2022/08/16 09:32:33;;;;;;;4.32;4.03;;;36.70;1.00;;;;;;5089651;28;20040;-56
2022/08/16 09:35:00;;;;;;;5.28;4.63;;;36.60;1.00;;;;;;5068647;28;20028;-56
2022/08/16 09:37:29;;;;;;;5.72;4.30;;;36.30;1.00;;;;;;5089569;28;20029;-55
2022/08/16 09:39:54;;;;;;;4.55;4.15;;;36.20;1.00;;;;;;5068111;28;20028;-56
2022/08/16 09:42:20;;;;;;;3.80;3.50;;;36.30;1.00;;;;;;5089388;28;20034;-54
2022/08/16 09:44:46;;;;;;;4.40;4.00;;;36.20;1.00;;;;;;5068547;28;20028;-53
2022/08/16 09:47:12;;;;;;;5.25;4.78;;;36.30;1.00;;;;;;5088116;28;20395;-55
2022/08/16 09:49:39;;;;;;;4.40;4.10;;;36.30;1.00;;;;;;5068492;28;20104;-55
2022/08/16 09:52:04;;;;;;;4.78;4.38;;;36.20;1.00;;;;;;5087161;28;20059;-54
2022/08/16 09:54:30;;;;;;;4.15;3.85;;;36.20;1.00;;;;;;5078511;28;20063;-62
2022/08/16 09:56:56;;;;;;;4.20;3.80;;;36.20;1.00;;;;;;5070092;28;20041;-66
2022/08/16 09:59:24;;;;;;;4.03;3.72;;;36.10;1.00;;;;;;5087001;28;20051;-66
2022/08/16 10:01:50;;;;;;;4.30;3.78;;;36.00;1.00;;;;;;5069685;28;20024;-66
2022/08/16 10:04:17;;;;;;;3.95;3.65;;;36.00;1.00;;;;;;5087147;28;20027;-66
2022/08/16 10:06:44;;;;;;;4.22;3.85;;;35.90;1.00;;;;;;5070101;28;20028;-66
2022/08/16 10:09:12;;;;;;;4.43;4.03;;;35.90;1.00;;;;;;5087269;28;20024;-66
2022/08/16 10:14:23;;;;;;;;;;;35.80;1.00;;;;;;5065765;28;20067;-66
2022/08/16 10:16:49;;;;;;;4.20;3.80;;;35.60;1.00;;;;;;5069882;28;19952;-66
2022/08/16 10:19:16;;;;;;;4.68;4.28;;;35.40;1.00;;;;;;5086957;28;20032;-66
2022/08/16 10:21:42;;;;;;;4.57;4.25;;;35.30;1.00;;;;;;5088321;28;20448;-66
2022/08/16 10:24:08;;;;;;;4.63;3.97;;;35.20;1.00;;;;;;5074190;28;20055;-66
2022/08/16 10:26:35;;;;;;;4.68;4.28;;;35.00;1.00;;;;;;5088100;28;20095;-66
2022/08/16 10:29:02;;;;;;;4.95;4.55;;;34.80;1.00;;;;;;5072944;28;20365;-66
2022/08/16 10:31:28;;;;;;;5.53;5.03;;;34.60;1.00;;;;;;5080243;28;20516;-66
2022/08/16 10:33:54;;;;;;;4.40;4.10;;;34.20;1.00;;;;;;5085449;28;20050;-66
2022/08/16 10:36:19;;;;;;;5.70;4.90;;;34.00;1.00;;;;;;5089374;28;20020;-66
2022/08/16 10:38:45;;;;;;;5.40;5.00;;;33.60;1.30;;;;;;5070481;28;20523;-66
2022/08/16 10:41:11;;;;;;;5.20;4.80;;;33.30;1.90;;;;;;5089291;28;20076;-66
2022/08/16 10:43:38;;;;;;;5.30;4.80;;;33.00;2.20;;;;;;5069034;28;20024;-66
2022/08/16 10:46:07;;;;;;;6.25;5.15;;;32.80;2.60;;;;;;5089294;28;20043;-66
2022/08/16 10:48:33;;;;;;;8.05;5.30;;;32.80;2.80;;;;;;5068044;28;20028;-66
2022/08/16 10:50:59;;;;;;;5.47;4.90;;;32.60;3.50;;;;;;5089386;28;20103;-67
2022/08/16 10:53:26;;;;;;;6.00;5.25;;;32.50;3.50;;;;;;5069483;28;20115;-67
2022/08/16 10:55:52;;;;;;;5.75;5.20;;;32.30;4.20;;;;;;5087087;28;20036;-67
2022/08/16 10:58:18;;;;;;;5.28;4.38;;;32.20;4.40;;;;;;5069264;28;20086;-66
2022/08/16 11:00:45;;;;;;;5.15;4.65;;;32.20;4.30;;;;;;5067949;28;20373;-67
2022/08/16 11:03:10;;;;;;;5.22;4.72;;;32.20;3.90;;;;;;5088579;28;20027;-67
2022/08/16 11:05:38;;;;;;;5.13;4.63;;;32.20;4.00;;;;;;5067681;28;20032;-66
2022/08/16 11:08:06;;;;;;;6.75;5.85;;;32.20;4.60;;;;;;5088714;28;20111;-67
2022/08/16 11:10:36;;;;;;;5.95;4.55;;;32.20;5.00;;;;;;5067171;28;20033;-67
2022/08/16 11:13:05;;;;;;;4.68;4.25;;;32.20;4.20;;;;;;5064314;28;20561;-66
2022/08/16 11:15:31;;;;;;;5.28;4.32;;;32.20;3.90;;;;;;5070031;28;20489;-66
2022/08/16 11:17:57;;;;;;;4.40;4.07;;;32.10;3.90;;;;;;5088312;28;20078;-66
2022/08/16 11:20:23;;;;;;;4.75;4.22;;;32.00;4.20;;;;;;5067501;28;20031;-66
2022/08/16 11:22:49;;;;;;;5.30;4.78;;;32.00;4.30;;;;;;5065624;28;20024;-66
2022/08/16 11:25:21;;;;;;;5.13;4.65;;;32.00;4.90;;;;;;5070229;28;20093;-66
2022/08/16 11:27:47;;;;;;;5.10;4.60;;;32.10;4.90;;;;;;5086216;28;20024;-66
2022/08/16 11:30:15;;;;;;;7.75;5.18;;;32.00;4.50;;;;;;5067596;28;20028;-67
2022/08/16 11:32:43;;;;;;;5.32;4.82;;;31.90;4.60;;;;;;5089750;28;20056;-67
2022/08/16 11:35:12;;;;;;;5.18;4.78;;;31.80;4.70;;;;;;5068101;28;20047;-66
2022/08/16 11:37:38;;;;;;;5.03;4.63;;;31.80;5.20;;;;;;5070989;28;20045;-66
2022/08/16 11:40:06;;;;;;;5.53;4.45;;;31.70;4.80;;;;;;5075297;28;20029;-66
2022/08/16 11:42:33;;;;;;;5.05;4.55;;;31.70;5.00;;;;;;5077848;28;20029;-67
2022/08/16 11:44:59;;;;;;;4.97;4.57;;;31.80;5.00;;;;;;5086631;28;20036;-66
2022/08/16 11:47:24;;;;;;;4.53;4.13;;;31.80;5.20;;;;;;5068445;28;20673;-66
2022/08/16 11:49:50;;;;;;;5.95;4.97;;;31.90;5.00;;;;;;5073188;28;20020;-66
2022/08/16 11:52:16;;;;;;;4.22;3.80;;;31.90;4.30;;;;;;5089069;28;20028;-66
2022/08/16 11:54:43;;;;;;;5.22;4.72;;;31.90;4.10;;;;;;5076353;28;20077;-66
2022/08/16 11:57:10;;;;;;;5.40;4.90;;;31.80;4.00;;;;;;5069816;28;20029;-66
2022/08/16 11:59:37;;;;;;;6.18;5.20;;;31.70;4.40;;;;;;5085812;28;20028;-66
2022/08/16 12:02:05;;;;;;;6.43;4.90;;;31.70;4.70;;;;;;5073312;28;20058;-66
2022/08/16 12:04:34;;;;;;;5.35;4.85;;;31.60;4.70;;;;;;5087209;28;20024;-66
2022/08/16 12:07:01;;;;;;;5.50;4.35;;;31.50;5.10;;;;;;5075341;28;20562;-66
2022/08/16 12:09:27;;;;;;;4.68;4.28;;;31.50;4.90;;;;;;5086776;28;20119;-67
2022/08/16 12:11:53;;;;;;;5.05;4.53;;;31.50;4.80;;;;;;5049142;28;20017;-66
2022/08/16 12:14:19;;;;;;;4.63;4.13;;;31.50;4.00;;;;;;5099486;28;20023;-66
2022/08/16 12:16:45;;;;;;;4.63;4.18;;;31.50;4.00;;;;;;5087807;28;20388;-67
2022/08/16 12:19:11;;;;;;;5.90;4.13;;;31.50;3.80;;;;;;5070582;28;20043;-66
2022/08/16 12:21:38;;;;;;;4.72;4.32;;;31.40;3.80;;;;;;5076358;28;20624;-66
2022/08/16 12:24:04;;;;;;;4.38;3.97;;;31.50;4.90;;;;;;5086557;28;20048;-66
2022/08/16 12:26:31;;;;;;;4.72;4.28;;;31.50;4.70;;;;;;5089306;28;20020;-67
2022/08/16 12:28:57;;;;;;;7.22;5.03;;;31.60;4.60;;;;;;5068341;28;20028;-67
2022/08/16 12:31:23;;;;;;;4.70;4.22;;;31.50;4.00;;;;;;5080538;28;20051;-67
2022/08/16 12:33:49;;;;;;;4.35;3.95;;;31.40;3.70;;;;;;5087515;28;20036;-66
2022/08/16 12:36:16;;;;;;;4.70;4.30;;;31.40;3.70;;;;;;5080184;28;20043;-66
2022/08/16 12:38:42;;;;;;;4.72;4.32;;;31.40;3.90;;;;;;5068716;28;20021;-66
2022/08/16 12:41:07;;;;;;;4.50;4.10;;;31.40;4.00;;;;;;5066807;28;20051;-66
2022/08/16 12:43:33;;;;;;;4.18;3.78;;;31.50;3.80;;;;;;5073506;28;20038;-66
2022/08/16 12:45:59;;;;;;;5.57;4.15;;;31.50;3.80;;;;;;5068431;28;20111;-67
2022/08/16 12:51:15;;;;;;;4.50;4.10;;;31.60;3.90;;;;;;5066131;28;20044;-66